sensor_id;sensor_type;location;lat;lon;timestamp;pressure;altitude;pressure_sealevel;temperature;humidity
76660;BME280;65579;45.534;6.212;2023-04-24T00:02:20;97800.07;;;12.79;49.98
76660;BME280;65579;45.534;6.212;2023-04-24T00:04:45;97793.86;;;12.25;51.08
76660;BME280;65579;45.534;6.212;2023-04-24T00:07:10;97795.09;;;12.30;50.75
76660;BME280;65579;45.534;6.212;2023-04-24T00:09:35;97789.23;;;12.27;50.67
76660;BME280;65579;45.534;6.212;2023-04-24T00:12:01;97785.80;;;12.16;50.34
76660;BME280;65579;45.534;6.212;2023-04-24T00:14:26;97782.28;;;12.07;50.95
76660;BME280;65579;45.534;6.212;2023-04-24T00:16:51;97784.27;;;12.13;50.62
76660;BME280;65579;45.534;6.212;2023-04-24T00:19:17;97789.90;;;12.36;50.66
76660;BME280;65579;45.534;6.212;2023-04-24T00:21:42;97797.84;;;12.18;51.31
76660;BME280;65579;45.534;6.212;2023-04-24T00:24:07;97802.04;;;11.94;50.90
76660;BME280;65579;45.534;6.212;2023-04-24T00:26:32;97805.67;;;11.88;51.44
76660;BME280;65579;45.534;6.212;2023-04-24T00:28:58;97804.98;;;12.18;51.31
76660;BME280;65579;45.534;6.212;2023-04-24T00:31:23;97803.85;;;13.47;49.10
76660;BME280;65579;45.534;6.212;2023-04-24T00:33:48;97802.88;;;13.75;48.42
76660;BME280;65579;45.534;6.212;2023-04-24T00:36:14;97801.84;;;13.24;49.05
76660;BME280;65579;45.534;6.212;2023-04-24T00:38:39;97800.04;;;12.34;49.61
76660;BME280;65579;45.534;6.212;2023-04-24T00:41:04;97798.07;;;12.43;50.18
76660;BME280;65579;45.534;6.212;2023-04-24T00:43:29;97799.57;;;12.55;50.05
76660;BME280;65579;45.534;6.212;2023-04-24T00:45:54;97802.06;;;12.93;49.54
76660;BME280;65579;45.534;6.212;2023-04-24T00:48:20;97801.93;;;13.02;49.25
76660;BME280;65579;45.534;6.212;2023-04-24T00:50:45;97806.61;;;11.32;54.80
76660;BME280;65579;45.534;6.212;2023-04-24T00:53:10;97809.97;;;10.97;56.01
76660;BME280;65579;45.534;6.212;2023-04-24T00:55:36;97807.22;;;11.55;53.72
76660;BME280;65579;45.534;6.212;2023-04-24T00:58:00;97804.71;;;12.09;52.67
76660;BME280;65579;45.534;6.212;2023-04-24T01:00:26;97803.08;;;12.11;52.38
76660;BME280;65579;45.534;6.212;2023-04-24T01:02:51;97802.62;;;12.15;52.48
76660;BME280;65579;45.534;6.212;2023-04-24T01:05:16;97804.07;;;12.33;52.09
76660;BME280;65579;45.534;6.212;2023-04-24T01:07:43;97807.08;;;12.13;51.13
76660;BME280;65579;45.534;6.212;2023-04-24T01:10:08;97810.83;;;12.74;50.40
76660;BME280;65579;45.534;6.212;2023-04-24T01:12:32;97809.04;;;12.18;51.42
76660;BME280;65579;45.534;6.212;2023-04-24T01:14:57;97809.52;;;11.52;51.91
76660;BME280;65579;45.534;6.212;2023-04-24T01:17:22;97813.49;;;12.82;50.16
76660;BME280;65579;45.534;6.212;2023-04-24T01:19:48;97818.09;;;13.01;49.91
76660;BME280;65579;45.534;6.212;2023-04-24T01:22:14;97821.59;;;12.52;50.52
76660;BME280;65579;45.534;6.212;2023-04-24T01:24:39;97821.94;;;13.00;49.93
76660;BME280;65579;45.534;6.212;2023-04-24T01:27:03;97823.12;;;12.49;50.98
76660;BME280;65579;45.534;6.212;2023-04-24T01:29:29;97821.19;;;13.02;49.66
76660;BME280;65579;45.534;6.212;2023-04-24T01:31:55;97812.34;;;12.97;50.07
76660;BME280;65579;45.534;6.212;2023-04-24T01:34:19;97805.08;;;12.50;50.66
76660;BME280;65579;45.534;6.212;2023-04-24T01:36:45;97793.85;;;12.36;50.71
76660;BME280;65579;45.534;6.212;2023-04-24T01:39:09;97787.39;;;11.91;51.07
76660;BME280;65579;45.534;6.212;2023-04-24T01:41:35;97787.29;;;12.83;49.41
76660;BME280;65579;45.534;6.212;2023-04-24T01:44:00;97787.91;;;12.92;48.88
76660;BME280;65579;45.534;6.212;2023-04-24T01:46:25;97782.97;;;11.77;50.95
76660;BME280;65579;45.534;6.212;2023-04-24T01:48:51;97784.39;;;13.07;49.31
76660;BME280;65579;45.534;6.212;2023-04-24T01:51:16;97785.32;;;12.17;50.24
76660;BME280;65579;45.534;6.212;2023-04-24T01:53:41;97784.98;;;11.80;51.89
76660;BME280;65579;45.534;6.212;2023-04-24T01:56:07;97785.84;;;12.33;50.84
76660;BME280;65579;45.534;6.212;2023-04-24T01:58:32;97791.72;;;12.66;50.15
76660;BME280;65579;45.534;6.212;2023-04-24T02:00:57;97794.20;;;12.47;51.08
76660;BME280;65579;45.534;6.212;2023-04-24T02:03:22;97797.30;;;11.67;52.34
76660;BME280;65579;45.534;6.212;2023-04-24T02:05:47;97800.72;;;12.54;51.56
76660;BME280;65579;45.534;6.212;2023-04-24T02:08:12;97803.73;;;12.34;51.66
76660;BME280;65579;45.534;6.212;2023-04-24T02:10:38;97802.23;;;11.67;53.17
76660;BME280;65579;45.534;6.212;2023-04-24T02:13:03;97798.35;;;11.98;51.73
76660;BME280;65579;45.534;6.212;2023-04-24T02:15:28;97791.62;;;12.45;50.47
76660;BME280;65579;45.534;6.212;2023-04-24T02:17:53;97786.44;;;12.08;51.54
76660;BME280;65579;45.534;6.212;2023-04-24T02:20:19;97789.31;;;11.91;51.44
76660;BME280;65579;45.534;6.212;2023-04-24T02:22:44;97792.15;;;12.10;51.28
76660;BME280;65579;45.534;6.212;2023-04-24T02:25:09;97794.13;;;11.99;50.71
76660;BME280;65579;45.534;6.212;2023-04-24T02:27:34;97799.08;;;12.08;51.03
76660;BME280;65579;45.534;6.212;2023-04-24T02:30:00;97806.49;;;11.81;51.22
76660;BME280;65579;45.534;6.212;2023-04-24T02:32:25;97807.18;;;12.16;51.73
76660;BME280;65579;45.534;6.212;2023-04-24T02:34:50;97810.89;;;11.91;51.52
76660;BME280;65579;45.534;6.212;2023-04-24T02:37:15;97810.85;;;11.84;51.68
76660;BME280;65579;45.534;6.212;2023-04-24T02:39:40;97811.75;;;12.88;49.69
76660;BME280;65579;45.534;6.212;2023-04-24T02:42:06;97812.28;;;12.64;50.35
76660;BME280;65579;45.534;6.212;2023-04-24T02:44:31;97810.85;;;12.38;50.56
76660;BME280;65579;45.534;6.212;2023-04-24T02:46:56;97814.65;;;12.44;50.56
76660;BME280;65579;45.534;6.212;2023-04-24T02:49:21;97810.12;;;11.84;51.18
76660;BME280;65579;45.534;6.212;2023-04-24T02:51:47;97807.97;;;12.33;50.92
76660;BME280;65579;45.534;6.212;2023-04-24T02:54:12;97808.39;;;11.97;51.14
76660;BME280;65579;45.534;6.212;2023-04-24T02:56:37;97812.40;;;11.92;51.44
76660;BME280;65579;45.534;6.212;2023-04-24T02:59:02;97814.29;;;12.32;50.73
76660;BME280;65579;45.534;6.212;2023-04-24T03:01:27;97818.38;;;11.90;51.44
76660;BME280;65579;45.534;6.212;2023-04-24T03:03:53;97819.24;;;12.32;50.91
76660;BME280;65579;45.534;6.212;2023-04-24T03:06:18;97819.61;;;13.29;49.12
76660;BME280;65579;45.534;6.212;2023-04-24T03:08:43;97822.50;;;12.90;49.82
76660;BME280;65579;45.534;6.212;2023-04-24T03:11:08;97818.36;;;13.60;48.35
76660;BME280;65579;45.534;6.212;2023-04-24T03:13:34;97816.16;;;13.28;48.91
76660;BME280;65579;45.534;6.212;2023-04-24T03:15:59;97817.15;;;12.23;50.45
76660;BME280;65579;45.534;6.212;2023-04-24T03:18:24;97817.39;;;13.28;49.29
76660;BME280;65579;45.534;6.212;2023-04-24T03:20:49;97817.07;;;13.18;49.39
76660;BME280;65579;45.534;6.212;2023-04-24T03:23:15;97816.74;;;12.79;49.84
76660;BME280;65579;45.534;6.212;2023-04-24T03:25:40;97818.38;;;12.43;50.68
76660;BME280;65579;45.534;6.212;2023-04-24T03:28:06;97819.04;;;12.53;50.45
76660;BME280;65579;45.534;6.212;2023-04-24T03:30:31;97816.97;;;12.31;51.39
76660;BME280;65579;45.534;6.212;2023-04-24T03:32:56;97819.48;;;12.13;51.16
76660;BME280;65579;45.534;6.212;2023-04-24T03:35:21;97826.74;;;11.99;51.54
76660;BME280;65579;45.534;6.212;2023-04-24T03:37:46;97830.82;;;12.47;50.70
76660;BME280;65579;45.534;6.212;2023-04-24T03:40:12;97833.61;;;11.65;51.89
76660;BME280;65579;45.534;6.212;2023-04-24T03:42:37;97831.26;;;12.68;50.65
76660;BME280;65579;45.534;6.212;2023-04-24T03:45:03;97826.10;;;13.00;50.13
76660;BME280;65579;45.534;6.212;2023-04-24T03:47:28;97827.48;;;12.98;50.43
76660;BME280;65579;45.534;6.212;2023-04-24T03:49:53;97830.70;;;12.16;51.93
76660;BME280;65579;45.534;6.212;2023-04-24T03:52:18;97830.22;;;12.51;50.71
76660;BME280;65579;45.534;6.212;2023-04-24T03:54:43;97823.09;;;12.14;51.36
76660;BME280;65579;45.534;6.212;2023-04-24T03:57:08;97819.32;;;11.98;51.88
76660;BME280;65579;45.534;6.212;2023-04-24T03:59:34;97814.38;;;13.02;50.65
76660;BME280;65579;45.534;6.212;2023-04-24T04:01:59;97807.12;;;13.13;49.78
76660;BME280;65579;45.534;6.212;2023-04-24T04:04:24;97802.59;;;12.56;50.51
76660;BME280;65579;45.534;6.212;2023-04-24T04:06:49;97804.97;;;12.06;51.23
76660;BME280;65579;45.534;6.212;2023-04-24T04:09:15;97810.63;;;12.08;51.02
76660;BME280;65579;45.534;6.212;2023-04-24T04:11:40;97813.71;;;11.93;51.15
76660;BME280;65579;45.534;6.212;2023-04-24T04:14:05;97818.26;;;11.66;52.23
76660;BME280;65579;45.534;6.212;2023-04-24T04:16:31;97825.74;;;12.31;51.89
76660;BME280;65579;45.534;6.212;2023-04-24T04:18:56;97835.25;;;11.61;54.00
76660;BME280;65579;45.534;6.212;2023-04-24T04:21:21;97835.28;;;11.24;54.79
76660;BME280;65579;45.534;6.212;2023-04-24T04:23:47;97834.10;;;11.51;53.89
76660;BME280;65579;45.534;6.212;2023-04-24T04:26:12;97833.10;;;11.61;53.50
76660;BME280;65579;45.534;6.212;2023-04-24T04:28:37;97828.46;;;12.18;51.75
76660;BME280;65579;45.534;6.212;2023-04-24T04:31:02;97826.93;;;12.54;51.35
76660;BME280;65579;45.534;6.212;2023-04-24T04:33:28;97820.89;;;12.08;52.28
76660;BME280;65579;45.534;6.212;2023-04-24T04:35:53;97814.40;;;12.07;51.51
76660;BME280;65579;45.534;6.212;2023-04-24T04:38:19;97813.72;;;11.48;52.39
76660;BME280;65579;45.534;6.212;2023-04-24T04:40:43;97820.86;;;11.90;51.38
76660;BME280;65579;45.534;6.212;2023-04-24T04:43:09;97828.16;;;12.02;51.67
76660;BME280;65579;45.534;6.212;2023-04-24T04:45:34;97825.50;;;12.14;52.02
76660;BME280;65579;45.534;6.212;2023-04-24T04:47:59;97819.71;;;11.35;53.09
76660;BME280;65579;45.534;6.212;2023-04-24T04:50:24;97811.12;;;11.63;52.55
76660;BME280;65579;45.534;6.212;2023-04-24T04:52:50;97812.87;;;12.30;51.54
76660;BME280;65579;45.534;6.212;2023-04-24T04:55:15;97812.76;;;12.08;51.82
76660;BME280;65579;45.534;6.212;2023-04-24T04:57:40;97812.95;;;11.90;52.16
76660;BME280;65579;45.534;6.212;2023-04-24T05:02:31;97829.15;;;11.32;54.63
76660;BME280;65579;45.534;6.212;2023-04-24T05:04:57;97834.44;;;11.36;54.87
76660;BME280;65579;45.534;6.212;2023-04-24T05:07:22;97840.92;;;11.58;53.97
76660;BME280;65579;45.534;6.212;2023-04-24T05:09:47;97843.57;;;12.34;52.00
76660;BME280;65579;45.534;6.212;2023-04-24T05:12:12;97848.42;;;12.67;51.33
76660;BME280;65579;45.534;6.212;2023-04-24T05:14:38;97858.18;;;12.30;51.79
76660;BME280;65579;45.534;6.212;2023-04-24T05:17:03;97868.42;;;11.73;53.31
76660;BME280;65579;45.534;6.212;2023-04-24T05:19:28;97871.05;;;11.84;53.12
76660;BME280;65579;45.534;6.212;2023-04-24T05:21:53;97875.02;;;11.83;52.91
76660;BME280;65579;45.534;6.212;2023-04-24T05:24:19;97882.34;;;12.30;52.44
76660;BME280;65579;45.534;6.212;2023-04-24T05:26:44;97887.18;;;11.59;53.72
76660;BME280;65579;45.534;6.212;2023-04-24T05:29:09;97890.37;;;11.20;54.79
76660;BME280;65579;45.534;6.212;2023-04-24T05:31:34;97889.39;;;11.93;53.39
76660;BME280;65579;45.534;6.212;2023-04-24T05:34:00;97891.25;;;11.11;54.80
76660;BME280;65579;45.534;6.212;2023-04-24T05:36:25;97891.58;;;12.36;53.21
76660;BME280;65579;45.534;6.212;2023-04-24T05:38:50;97896.03;;;11.77;53.67
76660;BME280;65579;45.534;6.212;2023-04-24T05:41:15;97901.27;;;11.82;53.43
76660;BME280;65579;45.534;6.212;2023-04-24T05:43:41;97903.26;;;12.10;52.86
76660;BME280;65579;45.534;6.212;2023-04-24T05:46:07;97899.11;;;12.15;52.64
76660;BME280;65579;45.534;6.212;2023-04-24T05:48:33;97902.60;;;11.68;53.18
76660;BME280;65579;45.534;6.212;2023-04-24T05:50:57;97909.62;;;11.84;53.07
76660;BME280;65579;45.534;6.212;2023-04-24T05:53:22;97911.07;;;11.71;53.17
76660;BME280;65579;45.534;6.212;2023-04-24T05:55:48;97915.81;;;11.72;53.27
76660;BME280;65579;45.534;6.212;2023-04-24T06:03:03;97921.00;;;11.44;54.31
76660;BME280;65579;45.534;6.212;2023-04-24T06:05:28;97914.51;;;12.75;52.62
76660;BME280;65579;45.534;6.212;2023-04-24T06:07:54;97918.42;;;13.47;51.99
76660;BME280;65579;45.534;6.212;2023-04-24T06:10:20;97915.65;;;12.92;52.50
76660;BME280;65579;45.534;6.212;2023-04-24T06:12:45;97917.28;;;13.25;52.37
76660;BME280;65579;45.534;6.212;2023-04-24T06:15:10;97917.61;;;13.03;51.65
76660;BME280;65579;45.534;6.212;2023-04-24T06:17:35;97922.41;;;12.93;51.58
76660;BME280;65579;45.534;6.212;2023-04-24T06:20:01;97926.70;;;12.86;52.06
76660;BME280;65579;45.534;6.212;2023-04-24T06:22:26;97929.71;;;12.32;51.86
76660;BME280;65579;45.534;6.212;2023-04-24T06:24:51;97927.93;;;12.64;51.98
76660;BME280;65579;45.534;6.212;2023-04-24T06:27:16;97933.91;;;12.81;51.85
76660;BME280;65579;45.534;6.212;2023-04-24T06:29:42;97933.19;;;12.96;51.00
76660;BME280;65579;45.534;6.212;2023-04-24T06:32:07;97940.84;;;12.58;51.99
76660;BME280;65579;45.534;6.212;2023-04-24T06:34:32;97944.05;;;12.28;52.55
76660;BME280;65579;45.534;6.212;2023-04-24T06:36:57;97947.08;;;12.51;52.26
76660;BME280;65579;45.534;6.212;2023-04-24T06:39:23;97948.14;;;12.96;51.06
76660;BME280;65579;45.534;6.212;2023-04-24T06:41:48;97947.88;;;13.37;50.13
76660;BME280;65579;45.534;6.212;2023-04-24T06:44:13;97949.67;;;13.67;49.71
76660;BME280;65579;45.534;6.212;2023-04-24T06:46:38;97947.44;;;14.09;49.56
76660;BME280;65579;45.534;6.212;2023-04-24T06:49:04;97942.29;;;13.56;49.93
76660;BME280;65579;45.534;6.212;2023-04-24T06:51:29;97945.10;;;13.96;49.48
76660;BME280;65579;45.534;6.212;2023-04-24T06:53:54;97948.59;;;13.62;50.16
76660;BME280;65579;45.534;6.212;2023-04-24T06:56:19;97956.01;;;13.08;50.42
76660;BME280;65579;45.534;6.212;2023-04-24T06:58:45;97963.13;;;13.24;50.13
76660;BME280;65579;45.534;6.212;2023-04-24T07:01:10;97965.42;;;13.03;51.39
76660;BME280;65579;45.534;6.212;2023-04-24T07:03:35;97964.69;;;12.77;50.92
76660;BME280;65579;45.534;6.212;2023-04-24T07:06:00;97967.85;;;13.35;50.55
76660;BME280;65579;45.534;6.212;2023-04-24T07:08:25;97972.88;;;12.82;50.08
76660;BME280;65579;45.534;6.212;2023-04-24T07:10:51;97983.51;;;12.72;50.53
76660;BME280;65579;45.534;6.212;2023-04-24T07:13:16;97985.88;;;12.62;51.91
76660;BME280;65579;45.534;6.212;2023-04-24T07:15:41;97988.54;;;12.71;50.92
76660;BME280;65579;45.534;6.212;2023-04-24T07:18:07;97993.68;;;12.97;51.26
76660;BME280;65579;45.534;6.212;2023-04-24T07:20:31;97993.11;;;11.73;53.76
76660;BME280;65579;45.534;6.212;2023-04-24T07:22:57;97994.69;;;12.38;52.75
76660;BME280;65579;45.534;6.212;2023-04-24T07:25:22;97990.84;;;13.20;51.35
76660;BME280;65579;45.534;6.212;2023-04-24T07:27:47;97984.47;;;12.88;50.48
76660;BME280;65579;45.534;6.212;2023-04-24T07:30:13;97993.36;;;12.43;53.19
76660;BME280;65579;45.534;6.212;2023-04-24T07:32:38;97998.48;;;12.02;53.18
76660;BME280;65579;45.534;6.212;2023-04-24T07:35:03;98001.36;;;12.78;51.44
76660;BME280;65579;45.534;6.212;2023-04-24T07:37:28;98000.23;;;11.80;51.62
76660;BME280;65579;45.534;6.212;2023-04-24T07:39:53;97997.22;;;12.27;50.05
76660;BME280;65579;45.534;6.212;2023-04-24T07:42:18;97999.34;;;11.57;51.94
76660;BME280;65579;45.534;6.212;2023-04-24T07:44:44;97995.91;;;10.90;52.85
76660;BME280;65579;45.534;6.212;2023-04-24T07:47:09;97997.45;;;11.34;52.12
76660;BME280;65579;45.534;6.212;2023-04-24T07:49:34;97999.46;;;11.05;52.30
76660;BME280;65579;45.534;6.212;2023-04-24T07:51:59;97999.66;;;11.61;51.20
76660;BME280;65579;45.534;6.212;2023-04-24T07:54:25;98001.44;;;11.24;53.04
76660;BME280;65579;45.534;6.212;2023-04-24T07:56:50;98006.10;;;11.43;51.97
76660;BME280;65579;45.534;6.212;2023-04-24T07:59:15;98007.35;;;11.45;51.67
76660;BME280;65579;45.534;6.212;2023-04-24T08:01:40;98012.63;;;11.78;51.29
76660;BME280;65579;45.534;6.212;2023-04-24T08:04:07;98021.87;;;11.58;50.74
76660;BME280;65579;45.534;6.212;2023-04-24T08:06:31;98027.60;;;11.34;51.01
76660;BME280;65579;45.534;6.212;2023-04-24T08:08:56;98028.82;;;12.06;49.91
76660;BME280;65579;45.534;6.212;2023-04-24T08:11:22;98033.92;;;11.63;52.14
76660;BME280;65579;45.534;6.212;2023-04-24T08:13:46;98040.86;;;11.96;50.76
76660;BME280;65579;45.534;6.212;2023-04-24T08:16:12;98040.65;;;11.83;50.04
76660;BME280;65579;45.534;6.212;2023-04-24T08:18:37;98042.58;;;12.30;50.12
76660;BME280;65579;45.534;6.212;2023-04-24T08:21:02;98043.79;;;12.12;49.43
76660;BME280;65579;45.534;6.212;2023-04-24T08:23:27;98044.91;;;11.95;50.22
76660;BME280;65579;45.534;6.212;2023-04-24T08:25:53;98052.90;;;12.28;50.97
76660;BME280;65579;45.534;6.212;2023-04-24T08:28:18;98054.84;;;11.63;49.25
76660;BME280;65579;45.534;6.212;2023-04-24T08:30:43;98059.84;;;11.61;49.94
76660;BME280;65579;45.534;6.212;2023-04-24T08:33:08;98066.03;;;11.41;51.16
76660;BME280;65579;45.534;6.212;2023-04-24T08:35:33;98065.54;;;11.09;53.72
76660;BME280;65579;45.534;6.212;2023-04-24T08:37:58;98067.18;;;11.45;51.27
76660;BME280;65579;45.534;6.212;2023-04-24T08:40:28;98070.19;;;11.60;49.30
76660;BME280;65579;45.534;6.212;2023-04-24T08:42:50;98077.54;;;11.80;49.26
76660;BME280;65579;45.534;6.212;2023-04-24T08:45:14;98086.66;;;12.71;47.62
76660;BME280;65579;45.534;6.212;2023-04-24T08:47:40;98089.70;;;13.26;46.49
76660;BME280;65579;45.534;6.212;2023-04-24T08:50:06;98086.91;;;11.96;48.38
76660;BME280;65579;45.534;6.212;2023-04-24T08:52:30;98091.76;;;11.46;50.56
76660;BME280;65579;45.534;6.212;2023-04-24T08:54:56;98093.74;;;11.64;51.43
76660;BME280;65579;45.534;6.212;2023-04-24T08:57:20;98094.56;;;10.51;53.18
76660;BME280;65579;45.534;6.212;2023-04-24T08:59:47;98091.41;;;11.30;52.31
76660;BME280;65579;45.534;6.212;2023-04-24T09:02:11;98095.40;;;12.02;50.70
76660;BME280;65579;45.534;6.212;2023-04-24T09:04:37;98094.07;;;11.25;51.42
76660;BME280;65579;45.534;6.212;2023-04-24T09:07:02;98090.94;;;11.74;50.71
76660;BME280;65579;45.534;6.212;2023-04-24T09:09:29;98092.64;;;11.88;50.51
76660;BME280;65579;45.534;6.212;2023-04-24T09:11:53;98096.87;;;12.36;49.87
76660;BME280;65579;45.534;6.212;2023-04-24T09:14:17;98097.56;;;11.77;49.67
76660;BME280;65579;45.534;6.212;2023-04-24T09:16:43;98098.19;;;12.17;49.66
76660;BME280;65579;45.534;6.212;2023-04-24T09:19:08;98102.84;;;13.19;48.39
76660;BME280;65579;45.534;6.212;2023-04-24T09:21:34;98102.49;;;13.35;48.71
76660;BME280;65579;45.534;6.212;2023-04-24T09:23:59;98097.29;;;14.27;46.03
76660;BME280;65579;45.534;6.212;2023-04-24T09:26:24;98101.57;;;15.00;45.13
76660;BME280;65579;45.534;6.212;2023-04-24T09:28:49;98101.76;;;15.40;43.54
76660;BME280;65579;45.534;6.212;2023-04-24T09:31:17;98101.41;;;15.53;43.02
76660;BME280;65579;45.534;6.212;2023-04-24T09:33:39;98102.35;;;15.30;43.50
76660;BME280;65579;45.534;6.212;2023-04-24T09:36:05;98099.22;;;15.62;40.95
76660;BME280;65579;45.534;6.212;2023-04-24T09:38:35;98097.77;;;15.92;40.66
76660;BME280;65579;45.534;6.212;2023-04-24T09:40:55;98099.60;;;14.75;43.30
76660;BME280;65579;45.534;6.212;2023-04-24T09:43:20;98095.55;;;15.07;42.90
76660;BME280;65579;45.534;6.212;2023-04-24T09:45:45;98091.49;;;14.41;44.43
76660;BME280;65579;45.534;6.212;2023-04-24T09:48:10;98093.59;;;13.96;44.08
76660;BME280;65579;45.534;6.212;2023-04-24T09:50:35;98089.01;;;14.51;46.07
76660;BME280;65579;45.534;6.212;2023-04-24T09:53:03;98089.01;;;13.93;44.53
76660;BME280;65579;45.534;6.212;2023-04-24T09:55:26;98089.33;;;13.21;46.46
76660;BME280;65579;45.534;6.212;2023-04-24T09:57:53;98081.43;;;13.93;46.52
76660;BME280;65579;45.534;6.212;2023-04-24T10:00:20;98080.37;;;14.30;45.36
76660;BME280;65579;45.534;6.212;2023-04-24T10:02:41;98079.30;;;15.34;43.12
76660;BME280;65579;45.534;6.212;2023-04-24T10:05:08;98077.58;;;14.59;44.30
76660;BME280;65579;45.534;6.212;2023-04-24T10:07:33;98076.11;;;14.85;43.07
76660;BME280;65579;45.534;6.212;2023-04-24T10:09:57;98075.18;;;15.56;43.73
76660;BME280;65579;45.534;6.212;2023-04-24T10:12:23;98072.65;;;15.28;43.06
76660;BME280;65579;45.534;6.212;2023-04-24T10:14:48;98070.28;;;15.12;44.73
76660;BME280;65579;45.534;6.212;2023-04-24T10:17:12;98070.24;;;16.05;43.16
76660;BME280;65579;45.534;6.212;2023-04-24T10:19:39;98072.35;;;16.18;43.60
76660;BME280;65579;45.534;6.212;2023-04-24T10:22:03;98069.54;;;17.08;39.57
76660;BME280;65579;45.534;6.212;2023-04-24T10:24:29;98066.09;;;15.78;40.07
76660;BME280;65579;45.534;6.212;2023-04-24T10:26:53;98061.11;;;15.78;41.55
76660;BME280;65579;45.534;6.212;2023-04-24T10:29:19;98060.11;;;15.13;42.56
76660;BME280;65579;45.534;6.212;2023-04-24T10:31:43;98051.27;;;16.22;41.56
76660;BME280;65579;45.534;6.212;2023-04-24T10:34:09;98046.39;;;16.47;38.86
76660;BME280;65579;45.534;6.212;2023-04-24T10:36:34;98051.14;;;15.92;38.16
76660;BME280;65579;45.534;6.212;2023-04-24T10:39:01;98045.61;;;16.52;34.01
76660;BME280;65579;45.534;6.212;2023-04-24T10:41:26;98045.42;;;17.22;34.72
76660;BME280;65579;45.534;6.212;2023-04-24T10:43:49;98045.04;;;17.28;31.93
76660;BME280;65579;45.534;6.212;2023-04-24T10:46:20;98041.92;;;16.56;35.38
76660;BME280;65579;45.534;6.212;2023-04-24T10:48:44;98037.68;;;16.53;32.73
76660;BME280;65579;45.534;6.212;2023-04-24T10:51:04;98039.07;;;17.02;35.56
76660;BME280;65579;45.534;6.212;2023-04-24T10:53:30;98033.46;;;18.01;31.99
76660;BME280;65579;45.534;6.212;2023-04-24T10:55:58;98030.92;;;17.89;33.01
76660;BME280;65579;45.534;6.212;2023-04-24T10:58:23;98022.60;;;18.16;32.28
76660;BME280;65579;45.534;6.212;2023-04-24T11:05:49;98034.99;;;17.19;31.15
76660;BME280;65579;45.534;6.212;2023-04-24T11:08:11;98035.18;;;17.34;32.81
76660;BME280;65579;45.534;6.212;2023-04-24T11:10:27;98034.16;;;17.06;32.56
76660;BME280;65579;45.534;6.212;2023-04-24T11:12:51;98032.23;;;16.54;33.76
76660;BME280;65579;45.534;6.212;2023-04-24T11:15:15;98031.36;;;16.99;32.98
76660;BME280;65579;45.534;6.212;2023-04-24T11:17:43;98026.49;;;18.10;30.53
76660;BME280;65579;45.534;6.212;2023-04-24T11:20:09;98022.72;;;17.60;31.50
76660;BME280;65579;45.534;6.212;2023-04-24T11:22:33;98016.45;;;18.22;29.99
76660;BME280;65579;45.534;6.212;2023-04-24T11:24:55;98011.41;;;18.24;31.53
76660;BME280;65579;45.534;6.212;2023-04-24T11:27:22;98016.45;;;17.93;33.22
76660;BME280;65579;45.534;6.212;2023-04-24T11:29:47;98010.68;;;17.80;31.56
76660;BME280;65579;45.534;6.212;2023-04-24T11:32:16;98006.28;;;17.16;31.49
76660;BME280;65579;45.534;6.212;2023-04-24T11:34:38;98001.42;;;17.67;33.90
76660;BME280;65579;45.534;6.212;2023-04-24T11:37:00;97995.74;;;17.57;33.19
76660;BME280;65579;45.534;6.212;2023-04-24T11:39:26;97994.01;;;18.51;31.48
76660;BME280;65579;45.534;6.212;2023-04-24T11:41:51;97997.38;;;17.04;32.05
76660;BME280;65579;45.534;6.212;2023-04-24T11:44:20;97999.14;;;17.02;32.73
76660;BME280;65579;45.534;6.212;2023-04-24T11:46:41;97998.22;;;17.32;32.19
76660;BME280;65579;45.534;6.212;2023-04-24T11:49:07;97997.55;;;16.97;32.35
76660;BME280;65579;45.534;6.212;2023-04-24T11:51:31;97997.30;;;17.42;29.39
76660;BME280;65579;45.534;6.212;2023-04-24T11:53:56;97998.95;;;18.11;32.33
76660;BME280;65579;45.534;6.212;2023-04-24T11:56:22;98000.43;;;17.00;28.56
76660;BME280;65579;45.534;6.212;2023-04-24T11:58:46;97990.31;;;17.75;28.53
76660;BME280;65579;45.534;6.212;2023-04-24T12:01:11;97994.96;;;19.29;29.53
76660;BME280;65579;45.534;6.212;2023-04-24T12:03:36;97985.18;;;18.17;30.22
76660;BME280;65579;45.534;6.212;2023-04-24T12:06:08;97993.39;;;17.18;30.73
76660;BME280;65579;45.534;6.212;2023-04-24T12:08:28;97995.66;;;17.65;29.66
76660;BME280;65579;45.534;6.212;2023-04-24T12:10:52;97992.66;;;18.52;29.89
76660;BME280;65579;45.534;6.212;2023-04-24T12:13:17;97997.98;;;17.16;30.54
76660;BME280;65579;45.534;6.212;2023-04-24T12:15:42;97988.30;;;18.08;28.29
76660;BME280;65579;45.534;6.212;2023-04-24T12:18:12;97983.73;;;18.82;27.13
76660;BME280;65579;45.534;6.212;2023-04-24T12:20:35;97981.80;;;18.45;27.81
76660;BME280;65579;45.534;6.212;2023-04-24T12:22:58;97976.10;;;18.52;28.20
76660;BME280;65579;45.534;6.212;2023-04-24T12:25:24;97972.44;;;18.28;27.12
76660;BME280;65579;45.534;6.212;2023-04-24T12:27:53;97973.23;;;18.23;28.98
76660;BME280;65579;45.534;6.212;2023-04-24T12:30:14;97972.11;;;18.22;27.42
76660;BME280;65579;45.534;6.212;2023-04-24T12:32:41;97968.41;;;18.57;24.13
76660;BME280;65579;45.534;6.212;2023-04-24T12:35:04;97971.56;;;16.95;27.94
76660;BME280;65579;45.534;6.212;2023-04-24T12:37:32;97969.43;;;17.33;28.95
76660;BME280;65579;45.534;6.212;2023-04-24T12:39:59;97966.56;;;16.54;31.37
76660;BME280;65579;45.534;6.212;2023-04-24T12:42:25;97967.05;;;17.56;27.27
76660;BME280;65579;45.534;6.212;2023-04-24T12:44:42;97959.81;;;18.02;26.79
76660;BME280;65579;45.534;6.212;2023-04-24T12:47:07;97957.73;;;18.07;24.55
76660;BME280;65579;45.534;6.212;2023-04-24T12:49:32;97954.68;;;18.32;26.38
76660;BME280;65579;45.534;6.212;2023-04-24T12:51:57;97954.17;;;18.75;24.68
76660;BME280;65579;45.534;6.212;2023-04-24T12:54:23;97951.23;;;18.37;25.06
76660;BME280;65579;45.534;6.212;2023-04-24T12:56:48;97951.28;;;18.39;27.26
76660;BME280;65579;45.534;6.212;2023-04-24T12:59:12;97958.31;;;18.82;23.90
76660;BME280;65579;45.534;6.212;2023-04-24T13:01:38;97957.42;;;18.53;25.14